Terminal Aerodrome Forecast
Issued by NWS Des Moines, IA

Home | Current Version | Previous Version | Text Only | Print | Product List | Glossary On
Versions: 1 2 3 4 5 6 7 8 9 10 11 12 13 14 15 16 17 18 19 20 21 22
000
FTUS43 KDMX 110525
TAFALO
TAF
KALO 110525Z 1106/1206 16003KT P6SM OVC090
     FM111400 23008KT P6SM BKN150
     FM111700 30012G18KT P6SM OVC090
     FM111800 31014G21KT P6SM VCSH OVC028
     FM112100 33016G26KT P6SM OVC020
     FM120100 33019G27KT P6SM BKN035=

USA.gov is the U.S. government's official web portal to all federal, state and local government web resources and services.